Flight Track Log - Related Links

Times and Time Zones

All times are in EDT time to prevent confusion due to time zone crossing. See the LXJ342 flight status page for this flight to view local times or setup timezone preferences in your user account.

Time Position Orientation Groundspeed Altitude Reporting Facility
EDT Latitude Longitude Course Direction KTS MPH feet Rate Location/Type
Sun 05:01:00 PM 32.7406 -117.2269 90° East 204 235 1,900  Level Los Angeles Center
Sun 05:02:02 PM 32.7581 -117.2969 287° West 217 250 5,200 3,048 Climbing Los Angeles Center
Sun 05:03:04 PM 32.7056 -117.3242 204° Southwest 244 281 8,200 3,339 Climbing Los Angeles Center
Sun 05:04:06 PM 32.6500 -117.2342 126° Southeast 288 331 12,100 2,976 Climbing Los Angeles Center
Sun 05:05:09 PM 32.6331 -117.1275 101° East 320 368 14,400 2,400 Climbing Los Angeles Center
Sun 05:06:00 PM 32.6167 -116.7790 90° East  Level FlightAware Approximate
Sun 05:06:11 PM 32.6150 -117.0128 101° East 348 400 17,100  Level Los Angeles Center
Sun 05:07:13 PM 32.6181 -116.8936 88° East 358 412 20,200 2,710 Climbing Los Angeles Center
Sun 05:08:15 PM 32.6067 -116.7819 97° East 345 397 22,700 2,226 Climbing Los Angeles Center
Sun 05:09:17 PM 32.6031 -116.6383 92° East 362 417 24,800 1,790 Climbing Los Angeles Center
Sun 05:10:19 PM 32.6017 -116.5156 91° East 371 427 26,400 1,488 Climbing Los Angeles Center
Sun 05:11:22 PM 32.6025 -116.3867 90° East 388 447 27,900 1,258 Climbing Los Angeles Center
Sun 05:12:23 PM 32.6256 -116.2517 79° East 417 480 29,000 1,122 Climbing Los Angeles Center
Sun 05:13:25 PM 32.6536 -116.0847 79° East 432 497 30,200 1,065 Climbing Los Angeles Center
Sun 05:14:27 PM 32.6772 -115.9403 79° East 445 512 31,200 1,056 Climbing Los Angeles Center
Sun 05:15:30 PM 32.7017 -115.7956 79° East 449 517 32,400 960 Climbing Los Angeles Center
Sun 05:16:32 PM 32.7258 -115.6500 79° East 452 520 33,200 823 Climbing Los Angeles Center
Sun 05:17:34 PM 32.7486 -115.5008 80° East 458 527 34,100 774 Climbing Los Angeles Center
Sun 05:18:36 PM 32.7544 -115.3483 87° East 464 534 34,800 774 Climbing Los Angeles Center
Sun 05:19:38 PM 32.7564 -115.1669 89° East 460 529 35,700 823 Climbing Los Angeles Center
Sun 05:20:40 PM 32.7603 -115.0156 88° East 459 528 36,500 774 Climbing Los Angeles Center
Sun 05:21:42 PM 32.7625 -114.8647 89° East 459 528 37,300 726 Climbing Los Angeles Center
Sun 05:22:44 PM 32.7689 -114.7131 87° East 460 529 38,000 576 Climbing Los Angeles Center
Sun 05:23:47 PM 32.7700 -114.5639 89° East 455 524 38,500 480 Climbing Los Angeles Center
Sun 05:24:49 PM 32.7739 -114.3811 89° East 460 529 39,000 242 Climbing Los Angeles Center
Sun 05:25:51 PM 32.7733 -114.2275 90° East 466 536 39,000  Level Los Angeles Center
Sun 05:26:53 PM 32.7775 -114.0686 88° East 478 550 39,000  Level Los Angeles Center
Sun 05:27:55 PM 32.7872 -113.9067 86° East 492 566 39,000  Level Los Angeles Center
Sun 05:28:57 PM 32.8111 -113.7450 80° East 497 572 39,000  Level Los Angeles Center
Sun 05:29:47 PM 32.8322 -113.5917 81° East 499 574 39,000  Level Albuquerque Center
Sun 05:30:49 PM 32.8556 -113.4264 80° East 502 578 39,000  Level Albuquerque Center
Sun 05:31:51 PM 32.8783 -113.2633 81° East 500 575 39,000  Level Albuquerque Center
Sun 05:32:52 PM 32.9019 -113.0989 80° East 500 575 39,000  Level Albuquerque Center
Sun 05:33:54 PM 32.9236 -112.9353 81° East 498 573 39,000  Level Albuquerque Center
Sun 05:34:56 PM 32.9447 -112.7731 81° East 496 571 39,000  Level Albuquerque Center
Sun 05:35:57 PM 32.9364 -112.6139 94° East 495 570 39,000  Level Albuquerque Center
Sun 05:36:59 PM 32.9117 -112.4581 101° East 478 550 39,000  Level Albuquerque Center
Sun 05:38:01 PM 32.8872 -112.3019 101° East 478 550 39,000  Level Albuquerque Center
Sun 05:39:02 PM 32.8608 -112.1242 100° East 474 545 39,000  Level Albuquerque Center
Sun 05:40:04 PM 32.8372 -111.9719 100° East 472 543 39,000  Level Albuquerque Center
Sun 05:41:06 PM 32.8128 -111.8167 101° East 478 550 39,000  Level Albuquerque Center
Sun 05:42:07 PM 32.7886 -111.6639 101° East 475 547 39,000  Level Albuquerque Center
Sun 05:43:09 PM 32.7650 -111.5103 100° East 474 545 39,000  Level Albuquerque Center
Sun 05:44:11 PM 32.7344 -111.3264 101° East 475 547 39,000  Level Albuquerque Center
Sun 05:45:12 PM 32.7106 -111.1728 100° East 475 547 39,000  Level Albuquerque Center
Sun 05:46:14 PM 32.6856 -111.0206 101° East 474 545 39,000  Level Albuquerque Center
Sun 05:47:15 PM 32.6603 -110.8664 101° East 476 548 39,000  Level Albuquerque Center
Sun 05:48:17 PM 32.6350 -110.7125 101° East 477 549 39,000  Level Albuquerque Center
Sun 05:49:19 PM 32.6083 -110.5572 101° East 480 552 39,000  Level Albuquerque Center
Sun 05:50:20 PM 32.5831 -110.4025 101° East 481 554 39,000  Level Albuquerque Center
Sun 05:51:22 PM 32.5556 -110.2403 101° East 482 555 39,000  Level Albuquerque Center
Sun 05:52:23 PM 32.5236 -110.0539 101° East 484 557 39,000  Level Albuquerque Center
Sun 05:53:25 PM 32.4972 -109.8981 101° East 484 557 39,000  Level Albuquerque Center
Sun 05:54:26 PM 32.4694 -109.7419 102° East 486 559 39,000  Level Albuquerque Center
Sun 05:55:28 PM 32.4411 -109.5842 102° East 492 566 39,000  Level Albuquerque Center
Sun 05:56:29 PM 32.4125 -109.4289 102° East 489 563 39,000  Level Albuquerque Center
Sun 05:57:31 PM 32.3858 -109.2756 102° East 484 557 39,000  Level Albuquerque Center
Sun 05:58:32 PM 32.3592 -109.1219 102° East 482 555 39,000  Level Albuquerque Center
Sun 05:59:34 PM 32.3258 -108.9375 102° East 482 555 39,000  Level Albuquerque Center
Sun 06:00:35 PM 32.2972 -108.7836 102° East 483 556 39,000  Level Albuquerque Center
Sun 06:01:37 PM 32.2700 -108.6314 102° East 479 551 39,000  Level Albuquerque Center
Sun 06:02:38 PM 32.2417 -108.4772 102° East 481 554 39,000  Level Albuquerque Center
Sun 06:03:40 PM 32.2136 -108.3297 103° East 484 557 39,000  Level Albuquerque Center
Sun 06:04:41 PM 32.1800 -108.1442 102° East 484 557 39,000  Level Albuquerque Center
Sun 06:05:43 PM 32.1511 -107.9903 102° East 483 556 39,000  Level Albuquerque Center
Sun 06:06:45 PM 32.1228 -107.8367 102° East 483 556 39,000  Level Albuquerque Center
Sun 06:07:46 PM 32.0928 -107.6842 103° East 483 556 39,000  Level Albuquerque Center
Sun 06:08:48 PM 32.0639 -107.5319 103° East 481 554 39,000  Level Albuquerque Center
Sun 06:09:49 PM 32.0353 -107.3786 102° East 482 555 39,000  Level Albuquerque Center
Sun 06:10:51 PM 32.0000 -107.1967 103° East 481 554 39,000  Level Albuquerque Center
Sun 06:11:53 PM 31.9717 -107.0461 102° East 478 550 39,000  Level Albuquerque Center
Sun 06:12:54 PM 31.9419 -106.8958 103° East 476 548 39,000  Level Albuquerque Center
Sun 06:13:56 PM 31.9111 -106.7475 104° East 471 542 39,000  Level Albuquerque Center
Sun 06:14:58 PM 31.8806 -106.5981 104° East 472 543 39,000  Level Albuquerque Center
Sun 06:15:59 PM 31.8475 -106.4228 102° East 481 554 39,000  Level Albuquerque Center
Sun 06:17:01 PM 31.8178 -106.2747 103° East 472 543 39,000 194 Level Albuquerque Center
Sun 06:18:03 PM 31.7992 -106.1317 99° East 440 506 39,400 732 Climbing Albuquerque Center
Sun 06:19:04 PM 31.7831 -105.9958 98° East 421 484 40,500 780 Climbing Albuquerque Center
Sun 06:20:06 PM 31.7675 -105.8661 98° East 405 466 41,000 242 Climbing Albuquerque Center
Sun 06:21:08 PM 31.7508 -105.7306 98° East 416 479 41,000  Level Albuquerque Center
Sun 06:22:09 PM 31.7347 -105.5911 98° East 429 494 41,000  Level Albuquerque Center
Sun 06:23:11 PM 31.7133 -105.4200 98° East 441 507 41,000  Level Albuquerque Center
Sun 06:24:12 PM 31.6958 -105.2778 98° East 439 505 41,000  Level Albuquerque Center
Sun 06:25:14 PM 31.6769 -105.1356 99° East 439 505 41,000  Level Albuquerque Center
Sun 06:26:16 PM 31.6589 -104.9889 98° East 448 516 41,000  Level Albuquerque Center
Sun 06:27:17 PM 31.6414 -104.8431 98° East 450 518 41,000  Level Albuquerque Center
Sun 06:28:19 PM 31.6219 -104.6947 99° East 455 524 41,000  Level Albuquerque Center
Sun 06:29:20 PM 31.6042 -104.5494 98° East 451 519 41,000  Level Albuquerque Center
Sun 06:30:22 PM 31.5847 -104.4058 99° East 446 513 41,000  Level Albuquerque Center
Sun 06:31:23 PM 31.5672 -104.2653 98° East 439 505 41,000  Level Albuquerque Center
Sun 06:32:25 PM 31.5469 -104.1258 100° East 435 501 41,000  Level Albuquerque Center
Sun 06:33:26 PM 31.5269 -103.9564 98° East 437 503 41,000  Level Albuquerque Center
Sun 06:34:28 PM 31.5053 -103.8119 100° East 445 512 41,000  Level Albuquerque Center
Sun 06:35:29 PM 31.4850 -103.6756 100° East 450 518 41,000  Level Albuquerque Center
Sun 06:36:31 PM 31.4656 -103.5300 99° East 452 520 41,000  Level Albuquerque Center
Sun 06:37:32 PM 31.4453 -103.3856 99° East 451 519 41,000  Level Albuquerque Center
Sun 06:38:33 PM 31.4228 -103.2119 99° East 450 518 41,000  Level Albuquerque Center
Sun 06:39:35 PM 31.4053 -103.0656 98° East 452 520 41,000  Level Albuquerque Center
Sun 06:40:36 PM 31.3869 -102.9194 98° East 454 522 41,000  Level Albuquerque Center
Sun 06:41:38 PM 31.3689 -102.7719 98° East 457 526 41,000  Level Albuquerque Center
Sun 06:42:39 PM 31.3503 -102.6253 98° East 457 526 41,000  Level Albuquerque Center
Sun 06:43:41 PM 31.3308 -102.4778 99° East 481 554 41,000  Level Albuquerque Center
Sun 06:44:42 PM 31.3117 -102.3303 99° East 470 541 41,000  Level Albuquerque Center
Sun 06:45:43 PM 31.2922 -102.1881 99° East 454 522 41,000  Level Albuquerque Center
Sun 06:46:18 PM 31.2825 -102.0822 96° East 453 521 41,000  Level Houston Center
Sun 06:47:20 PM 31.2625 -101.9461 100° East 433 498 41,000  Level Houston Center
Sun 06:48:22 PM 31.2439 -101.8089 99° East 430 495 41,000  Level Houston Center
Sun 06:49:23 PM 31.2244 -101.6708 99° East 430 495 41,000  Level Houston Center
Sun 06:50:25 PM 31.2058 -101.5303 99° East 436 502 41,000 -48 Level Houston Center
Sun 06:51:27 PM 31.1856 -101.3889 99° East 441 507 40,900  Descending Houston Center
Sun 06:52:28 PM 31.1633 -101.2364 100° East 445 512 41,000 49 Climbing Houston Center
Sun 06:53:30 PM 31.1447 -101.0931 99° East 447 514 41,000  Level Houston Center
Sun 06:54:32 PM 31.1242 -100.9508 100° East 445 512 41,000  Level Houston Center
Sun 06:55:33 PM 31.1000 -100.7803 99° East 445 512 41,000  Level Houston Center
Sun 06:56:35 PM 31.0794 -100.6400 100° East 442 509 41,000  Level Houston Center
Sun 06:57:37 PM 31.0589 -100.4989 100° East 441 507 41,000  Level Houston Center
Sun 06:58:39 PM 31.0394 -100.3575 99° East 440 506 41,000  Level Houston Center
Sun 06:59:41 PM 31.0178 -100.2161 100° East 442 509 41,000  Level Houston Center
Sun 07:00:42 PM 30.9964 -100.0750 100° East 441 507 41,000  Level Houston Center
Sun 07:01:44 PM 30.9756 -99.9339 100° East 442 509 41,000  Level Houston Center
Sun 07:02:46 PM 30.9553 -99.7922 99° East 443 510 41,000  Level Houston Center
Sun 07:03:48 PM 30.9289 -99.6225 100° East 443 510 41,000  Level Houston Center
Sun 07:04:49 PM 30.9075 -99.4811 100° East 443 510 41,000  Level Houston Center
Sun 07:05:51 PM 30.8853 -99.3378 100° East 447 514 41,000  Level Houston Center
Sun 07:06:53 PM 30.8628 -99.1967 100° East 445 512 41,000  Level Houston Center
Sun 07:07:54 PM 30.8422 -99.0608 100° East 446 513 41,000  Level Houston Center
Sun 07:08:56 PM 30.8142 -98.8953 101° East 443 510 41,000  Level Houston Center
Sun 07:09:58 PM 30.7939 -98.7525 99° East 444 511 41,000  Level Houston Center
Sun 07:11:00 PM 30.7806 -98.6092 96° East 443 510 41,000  Level Houston Center
Sun 07:12:01 PM 30.7681 -98.4675 96° East 439 505 41,000  Level Houston Center
Sun 07:13:03 PM 30.7544 -98.3233 96° East 443 510 41,000  Level Houston Center
Sun 07:14:05 PM 30.7406 -98.1806 96° East 442 509 41,000  Level Houston Center
Sun 07:15:06 PM 30.7256 -98.0375 97° East 443 510 41,000  Level Houston Center
Sun 07:16:08 PM 30.7111 -97.8928 97° East 446 513 41,000  Level Houston Center
Sun 07:17:10 PM 30.6961 -97.7478 97° East 450 518 41,000  Level Houston Center
Sun 07:18:11 PM 30.6789 -97.5783 97° East 451 519 41,000 -146 Level Houston Center
Sun 07:19:13 PM 30.6628 -97.4311 97° East 457 526 40,700 -1,694 Descending Houston Center
Sun 07:20:15 PM 30.6467 -97.2792 97° East 472 543 37,500 -3,171 Descending Houston Center
Sun 07:21:16 PM 30.6319 -97.1242 96° East 483 556 34,200 -3,268 Descending Houston Center
Sun 07:22:18 PM 30.6164 -96.9678 97° East 475 547 30,800 -3,097 Descending Houston Center
Sun 07:23:20 PM 30.6011 -96.8242 97° East 465 535 27,800 -2,878 Descending Houston Center
Sun 07:24:21 PM 30.5867 -96.6850 97° East 439 505 24,900 -3,073 Descending Houston Center
Sun 07:25:23 PM 30.5050 -96.5600 127° Southeast 419 482 21,500 -3,000 Descending Houston Center
Sun 07:26:25 PM 30.4236 -96.4631 134° Southeast 416 479 18,700 -2,727 Descending Houston Center
Sun 07:27:24 PM 30.3481 -96.3761 135° Southeast 391 450 16,000 -2,585 Descending Houston Center
Sun 07:28:28 PM 30.2753 -96.2869 133° Southeast 372 428 13,400 -2,352 Descending Houston Center
Sun 07:29:29 PM 30.2075 -96.2069 134° Southeast 351 404 11,100 -1,210 Descending Houston Center
Sun 07:30:27 PM 30.1156 -96.1581 155° Southeast 352 405 11,000 -48 Descending Houston Center
Sun 07:31:33 PM 30.0264 -96.1094 155° Southeast 351 404 11,000  Level Houston Center
Sun 07:32:29 PM 29.9353 -96.0625 156° South 348 400 11,000  Level Houston Center
Sun 07:33:36 PM 29.8667 -96.0142 149° Southeast 302 348 11,000  Level Houston Center
Sun 07:34:36 PM 29.8042 -95.9283 130° Southeast 320 368 11,000  Level Houston Center
Sun 07:35:38 PM 29.7397 -95.8419 131° Southeast 349 402 11,000 -689 Level Houston Center
Sun 07:36:38 PM 29.6825 -95.7642 130° Southeast 296 341 9,600 -1,438 Descending Houston Center
Sun 07:37:39 PM 29.6300 -95.6936 131° Southeast 272 313 8,100 -1,672 Descending Houston Center
Sun 07:38:40 PM 29.5883 -95.6239 124° Southeast 273 314 6,200 -1,869 Descending Houston Center
Sun 07:39:41 PM 29.5767 -95.5436 99° East 253 291 4,300 -1,525 Descending Houston Center
Sun 07:40:42 PM 29.5633 -95.4658 101° East 242 278 3,100 -1,230 Descending Houston Center
Sun 07:41:43 PM 29.5569 -95.3947 96° East 214 246 1,800 -787 Descending Houston Center
Sun 07:42:44 PM 29.5861 -95.3456 56° Northeast 157 181 1,500 -492 Descending Houston Center
Sun 07:43:45 PM 29.6125 -95.3136 46° Northeast 138 159 800 -651 Descending Houston Center
Sun 07:44:53 PM 29.6392 -95.2858 42° Northeast 139 160 100 -618 Descending Houston Center
Sun 07:46:00 PM 29.6454 -95.2789 115° Southeast  Level Estimated
Sun 07:53:00 PM 29.6454 -95.2789 115° Southeast  Level Estimated

Login

Don't have an account? Register now (free) for customized features, flight alerts, and more!